createdAt,value
2019-03-10T00:00:39.663Z,13.20
2019-03-10T00:01:39.626Z,13.20
2019-03-10T00:02:39.635Z,14.50
2019-03-10T00:03:39.634Z,14.00
2019-03-10T00:04:39.626Z,15.50
2019-03-10T00:05:39.595Z,16.80
2019-03-10T00:06:39.613Z,16.00
2019-03-10T00:07:39.640Z,15.90
2019-03-10T00:08:39.584Z,14.70
2019-03-10T00:09:39.589Z,13.20
2019-03-10T00:10:39.620Z,13.70
2019-03-10T00:11:39.624Z,13.20
2019-03-10T00:12:39.610Z,12.50
2019-03-10T00:13:39.572Z,13.40
2019-03-10T00:14:39.548Z,12.80
2019-03-10T00:15:39.546Z,14.00
2019-03-10T00:16:39.589Z,13.50
2019-03-10T00:17:39.553Z,13.80
2019-03-10T00:18:39.726Z,14.10
2019-03-10T00:19:39.540Z,13.30
2019-03-10T00:20:39.519Z,15.50
2019-03-10T00:21:39.503Z,14.20
2019-03-10T00:22:39.507Z,14.40
2019-03-10T00:23:39.516Z,14.00
2019-03-10T00:24:39.497Z,16.30
2019-03-10T00:25:39.502Z,15.10
2019-03-10T00:26:39.470Z,14.70
2019-03-10T00:27:39.478Z,16.10
2019-03-10T00:28:39.471Z,15.70
2019-03-10T00:29:39.683Z,16.30
2019-03-10T00:30:39.450Z,15.70
2019-03-10T00:31:39.446Z,15.60
2019-03-10T00:32:39.463Z,16.10
2019-03-10T00:33:39.451Z,16.10
2019-03-10T00:34:39.442Z,16.20
2019-03-10T00:35:39.437Z,15.60
2019-03-10T00:36:39.425Z,14.70
2019-03-10T00:37:39.416Z,14.60
2019-03-10T00:38:39.402Z,14.90
2019-03-10T00:39:39.385Z,15.30
2019-03-10T00:40:39.391Z,15.40
2019-03-10T00:41:39.397Z,15.40
2019-03-10T00:42:39.433Z,15.60
2019-03-10T00:43:39.417Z,17.20
2019-03-10T00:44:39.374Z,17.40
2019-03-10T00:45:39.354Z,17.80
2019-03-10T00:46:39.358Z,18.10
2019-03-10T00:47:39.362Z,17.10
2019-03-10T00:48:39.367Z,18.00
2019-03-10T00:49:39.339Z,18.40
2019-03-10T00:50:39.353Z,17.30
2019-03-10T00:51:39.332Z,17.80
2019-03-10T00:52:39.351Z,17.30
2019-03-10T00:53:39.326Z,17.90
2019-03-10T00:54:39.329Z,17.80
2019-03-10T00:55:39.316Z,17.70
2019-03-10T00:56:39.292Z,17.30
2019-03-10T00:57:39.299Z,18.10
2019-03-10T00:58:39.292Z,17.90
2019-03-10T00:59:39.272Z,16.70
2019-03-10T01:00:39.271Z,15.90
2019-03-10T01:01:39.258Z,16.60
2019-03-10T01:02:39.286Z,17.90
2019-03-10T01:03:39.270Z,16.60
2019-03-10T01:04:39.241Z,17.30
2019-03-10T01:05:39.268Z,17.20
2019-03-10T01:06:39.258Z,16.80
2019-03-10T01:07:39.219Z,18.00
2019-03-10T01:08:39.241Z,18.30
2019-03-10T01:09:39.225Z,19.40
2019-03-10T01:10:39.283Z,18.60
2019-03-10T01:11:39.209Z,17.60
2019-03-10T01:12:39.250Z,16.80
2019-03-10T01:13:39.216Z,18.10
2019-03-10T01:14:39.196Z,16.00
2019-03-10T01:15:39.188Z,16.80
2019-03-10T01:16:39.199Z,16.00
2019-03-10T01:17:39.186Z,15.90
2019-03-10T01:18:39.188Z,16.00
2019-03-10T01:19:39.183Z,15.00
2019-03-10T01:20:39.178Z,13.40
2019-03-10T01:21:39.167Z,13.60
2019-03-10T01:22:39.159Z,13.30
2019-03-10T01:23:39.154Z,14.10
2019-03-10T01:24:39.118Z,14.50
2019-03-10T01:25:39.121Z,14.60
2019-03-10T01:26:39.131Z,14.70
2019-03-10T01:27:39.133Z,15.60
2019-03-10T01:28:39.155Z,14.70
2019-03-10T01:29:39.097Z,13.80
2019-03-10T01:30:39.111Z,13.70
2019-03-10T01:31:39.114Z,14.40
2019-03-10T01:32:39.086Z,14.50
2019-03-10T01:33:39.085Z,13.90
2019-03-10T01:34:39.064Z,14.10
2019-03-10T01:35:39.065Z,15.30
2019-03-10T01:36:39.075Z,14.50
2019-03-10T01:37:39.067Z,15.20
2019-03-10T01:38:39.066Z,14.60
2019-03-10T01:39:39.242Z,14.90
2019-03-10T01:40:39.041Z,15.50
2019-03-10T01:41:39.055Z,14.90
2019-03-10T01:42:39.028Z,14.90
2019-03-10T01:43:39.032Z,15.00
2019-03-10T01:44:39.035Z,14.70
2019-03-10T01:45:39.011Z,14.90
2019-03-10T01:46:38.993Z,14.40
2019-03-10T01:47:39.010Z,14.70
2019-03-10T01:48:38.989Z,15.50
2019-03-10T01:49:39.001Z,15.70
2019-03-10T01:50:38.984Z,15.20
2019-03-10T01:51:38.974Z,15.80
2019-03-10T01:52:38.979Z,15.80
2019-03-10T01:53:38.960Z,16.10
2019-03-10T01:54:38.972Z,16.40
2019-03-10T01:55:38.938Z,16.10
2019-03-10T01:56:38.941Z,16.40
2019-03-10T01:57:38.964Z,17.10
2019-03-10T01:58:38.943Z,16.80
2019-03-10T01:59:38.950Z,17.70
2019-03-10T02:00:38.966Z,17.40
2019-03-10T02:01:38.930Z,17.10
2019-03-10T02:02:38.954Z,17.20
2019-03-10T02:03:38.954Z,18.30
2019-03-10T02:04:38.901Z,17.30
2019-03-10T02:05:38.916Z,18.70
2019-03-10T02:06:38.887Z,19.40
2019-03-10T02:07:38.878Z,20.50
2019-03-10T02:08:38.925Z,21.70
2019-03-10T02:09:38.863Z,21.20
2019-03-10T02:10:38.865Z,20.00
2019-03-10T02:11:38.895Z,19.90
2019-03-10T02:12:38.866Z,20.90
2019-03-10T02:13:38.845Z,19.10
2019-03-10T02:14:38.888Z,20.20
2019-03-10T02:15:38.834Z,20.10
2019-03-10T02:16:38.810Z,20.40
2019-03-10T02:17:38.825Z,21.00
2019-03-10T02:18:38.861Z,21.60
2019-03-10T02:19:38.809Z,22.10
2019-03-10T02:20:38.801Z,21.30
2019-03-10T02:21:38.808Z,20.40
2019-03-10T02:22:38.845Z,20.60
2019-03-10T02:23:38.807Z,20.10
2019-03-10T02:24:38.782Z,19.00
2019-03-10T02:25:38.833Z,20.00
2019-03-10T02:26:38.761Z,19.30
2019-03-10T02:27:38.777Z,20.50
2019-03-10T02:28:38.751Z,20.20
2019-03-10T02:29:38.748Z,19.90
2019-03-10T02:30:38.746Z,20.50
2019-03-10T02:31:38.739Z,20.60
2019-03-10T02:32:38.734Z,21.60
2019-03-10T02:33:38.724Z,21.70
2019-03-10T02:34:38.728Z,21.90
2019-03-10T02:35:38.737Z,21.70
2019-03-10T02:36:38.698Z,22.40
2019-03-10T02:37:38.696Z,22.20
2019-03-10T02:38:38.698Z,22.80
2019-03-10T02:39:38.683Z,23.10
2019-03-10T02:40:38.696Z,22.20
2019-03-10T02:41:38.679Z,23.80
2019-03-10T02:42:38.666Z,24.50
2019-03-10T02:43:38.723Z,24.20
2019-03-10T02:44:38.678Z,23.50
2019-03-10T02:45:38.667Z,23.00
2019-03-10T02:46:38.660Z,24.10
2019-03-10T02:47:38.692Z,23.70
2019-03-10T02:48:38.653Z,24.70
2019-03-10T02:49:38.638Z,25.50
2019-03-10T02:50:38.648Z,24.30
2019-03-10T02:51:38.666Z,25.70
2019-03-10T02:52:38.628Z,24.70
2019-03-10T02:53:38.617Z,24.30
2019-03-10T02:54:38.666Z,23.80
2019-03-10T02:55:38.586Z,24.40
2019-03-10T02:56:38.607Z,24.60
2019-03-10T02:57:38.600Z,24.90
2019-03-10T02:58:38.587Z,24.70
2019-03-10T02:59:38.589Z,25.20
2019-03-10T03:00:38.563Z,24.80
2019-03-10T03:01:38.570Z,25.30
2019-03-10T03:02:38.545Z,25.00
2019-03-10T03:03:38.544Z,24.90
2019-03-10T03:04:38.560Z,24.80
2019-03-10T03:05:38.546Z,25.40
2019-03-10T03:06:38.549Z,24.70
2019-03-10T03:07:38.537Z,25.40
2019-03-10T03:08:38.529Z,27.20
2019-03-10T03:09:38.527Z,25.90
2019-03-10T03:10:38.526Z,27.30
2019-03-10T03:11:38.512Z,25.40
2019-03-10T03:12:38.511Z,26.00
2019-03-10T03:13:38.471Z,25.00
2019-03-10T03:14:38.494Z,25.40
2019-03-10T03:15:38.487Z,25.90
2019-03-10T03:16:38.493Z,25.90
2019-03-10T03:17:38.470Z,25.60
2019-03-10T03:18:38.453Z,26.30
2019-03-10T03:19:38.456Z,26.40
2019-03-10T03:20:38.436Z,26.60
2019-03-10T03:21:43.524Z,26.00
2019-03-10T03:22:38.453Z,26.90
2019-03-10T03:23:38.433Z,26.80
2019-03-10T03:24:38.430Z,27.70
2019-03-10T03:25:38.434Z,26.80
2019-03-10T03:26:38.420Z,26.70
2019-03-10T03:27:38.406Z,28.00
2019-03-10T03:28:38.389Z,27.80
2019-03-10T03:29:38.400Z,28.90
2019-03-10T03:30:38.405Z,27.60
2019-03-10T03:31:38.606Z,26.10
2019-03-10T03:32:38.396Z,27.70
2019-03-10T03:33:38.386Z,29.70
2019-03-10T03:34:38.375Z,27.10
2019-03-10T03:35:38.369Z,27.00
2019-03-10T03:36:38.366Z,27.40
2019-03-10T03:37:38.359Z,28.80
2019-03-10T03:38:38.384Z,28.80
2019-03-10T03:39:38.384Z,28.10
2019-03-10T03:40:38.349Z,28.50
2019-03-10T03:41:38.380Z,27.60
2019-03-10T03:42:38.315Z,26.50
2019-03-10T03:43:38.325Z,25.00
2019-03-10T03:44:38.302Z,25.50
2019-03-10T03:45:38.308Z,24.50
2019-03-10T03:46:38.316Z,25.30
2019-03-10T03:47:38.306Z,25.20
2019-03-10T03:48:38.293Z,23.80
2019-03-10T03:49:38.284Z,23.20
2019-03-10T03:50:38.287Z,23.00
2019-03-10T03:51:38.289Z,21.40
2019-03-10T03:52:38.270Z,22.50
2019-03-10T03:53:38.246Z,19.90
2019-03-10T03:54:38.248Z,19.10
2019-03-10T03:55:38.235Z,18.30
2019-03-10T03:56:38.231Z,18.10
2019-03-10T03:57:38.231Z,18.90
2019-03-10T03:58:38.232Z,18.70
2019-03-10T03:59:38.220Z,17.40
2019-03-10T04:00:38.265Z,17.30
2019-03-10T04:01:38.228Z,17.40
2019-03-10T04:02:38.215Z,16.80
2019-03-10T04:03:38.202Z,15.50
2019-03-10T04:04:38.204Z,12.50
2019-03-10T04:05:38.200Z,9.60
2019-03-10T04:06:38.187Z,9.20
2019-03-10T04:07:38.190Z,8.40
2019-03-10T04:08:38.215Z,7.30
2019-03-10T04:09:38.148Z,7.00
2019-03-10T04:10:38.154Z,6.50
2019-03-10T04:11:38.146Z,6.70
2019-03-10T04:12:38.136Z,6.40
2019-03-10T04:13:38.117Z,5.80
2019-03-10T04:14:38.123Z,4.90
2019-03-10T04:15:38.117Z,4.90
2019-03-10T04:16:38.128Z,4.90
2019-03-10T04:17:38.109Z,5.10
2019-03-10T04:18:38.110Z,5.30
2019-03-10T04:19:38.082Z,5.50
2019-03-10T04:20:38.075Z,4.80
2019-03-10T04:21:38.133Z,4.50
2019-03-10T04:22:38.063Z,4.40
2019-03-10T04:23:38.070Z,4.80
2019-03-10T04:24:38.077Z,5.00
2019-03-10T04:25:38.077Z,5.10
2019-03-10T04:26:38.047Z,5.00
2019-03-10T04:27:38.055Z,5.40
2019-03-10T04:28:38.040Z,5.90
2019-03-10T04:29:38.038Z,5.40
2019-03-10T04:30:38.034Z,5.70
2019-03-10T04:31:38.036Z,6.00
2019-03-10T04:32:38.022Z,5.10
2019-03-10T04:33:38.012Z,5.90
2019-03-10T04:34:38.007Z,5.90
2019-03-10T04:35:38.008Z,5.90
2019-03-10T04:36:37.980Z,5.70
2019-03-10T04:37:37.988Z,5.70
2019-03-10T04:38:37.996Z,5.50
2019-03-10T04:39:37.963Z,6.20
2019-03-10T04:40:37.976Z,6.00
2019-03-10T04:41:37.968Z,5.80
2019-03-10T04:42:37.965Z,5.80
2019-03-10T04:43:37.987Z,5.20
2019-03-10T04:44:37.953Z,4.50
2019-03-10T04:45:37.921Z,4.40
2019-03-10T04:46:37.916Z,4.00
2019-03-10T04:47:37.922Z,3.40
2019-03-10T04:48:37.922Z,3.90
2019-03-10T04:49:37.893Z,3.10
2019-03-10T04:50:37.887Z,2.70
2019-03-10T04:51:37.875Z,3.50
2019-03-10T04:52:37.887Z,2.80
2019-03-10T04:53:37.925Z,2.10
2019-03-10T04:54:37.861Z,1.80
2019-03-10T04:55:37.870Z,2.00
2019-03-10T04:56:37.864Z,2.20
2019-03-10T04:57:37.846Z,2.30
2019-03-10T04:58:37.855Z,2.30
2019-03-10T04:59:37.845Z,2.10
2019-03-10T05:00:37.847Z,2.00
2019-03-10T05:01:37.809Z,2.40
2019-03-10T05:02:37.801Z,2.60
2019-03-10T05:03:37.803Z,1.90
2019-03-10T05:04:37.820Z,2.00
2019-03-10T05:05:37.817Z,2.20
2019-03-10T05:06:37.982Z,2.20
2019-03-10T05:07:37.801Z,1.90
2019-03-10T05:08:37.767Z,2.10
2019-03-10T05:09:37.745Z,2.50
2019-03-10T05:10:37.763Z,2.00
2019-03-10T05:11:37.769Z,1.90
2019-03-10T05:12:37.764Z,1.70
2019-03-10T05:13:37.767Z,1.80
2019-03-10T05:14:37.730Z,2.20
2019-03-10T05:15:37.724Z,1.90
2019-03-10T05:16:37.738Z,2.20
2019-03-10T05:17:37.723Z,1.90
2019-03-10T05:18:37.705Z,1.70
2019-03-10T05:19:37.717Z,1.70
2019-03-10T05:20:37.682Z,1.80
2019-03-10T05:21:37.691Z,1.70
2019-03-10T05:22:37.693Z,1.80
2019-03-10T05:23:37.672Z,2.00
2019-03-10T05:24:37.685Z,1.90
2019-03-10T05:25:37.665Z,1.70
2019-03-10T05:26:37.647Z,1.70
2019-03-10T05:27:37.697Z,1.80
2019-03-10T05:28:37.651Z,1.80
2019-03-10T05:29:37.639Z,1.70
2019-03-10T05:30:37.614Z,1.70
2019-03-10T05:31:37.614Z,1.70
2019-03-10T05:32:37.600Z,1.70
2019-03-10T05:33:37.594Z,1.70
2019-03-10T05:34:37.585Z,1.80
2019-03-10T05:35:37.574Z,1.50
2019-03-10T05:36:37.594Z,2.00
2019-03-10T05:37:37.614Z,1.60
2019-03-10T05:38:37.558Z,2.10
2019-03-10T05:39:37.568Z,1.60
2019-03-10T05:40:37.574Z,1.90
2019-03-10T05:41:37.563Z,1.70
2019-03-10T05:42:37.603Z,1.50
2019-03-10T05:43:38.787Z,1.70
2019-03-10T05:44:37.529Z,1.60
2019-03-10T05:45:37.519Z,1.50
2019-03-10T05:46:37.525Z,1.60
2019-03-10T05:47:37.523Z,1.70
2019-03-10T05:48:37.522Z,1.40
2019-03-10T05:49:37.508Z,1.50
2019-03-10T05:50:37.507Z,1.50
2019-03-10T05:51:37.469Z,1.50
2019-03-10T05:52:37.484Z,2.20
2019-03-10T05:53:37.514Z,1.30
2019-03-10T05:54:37.466Z,1.30
2019-03-10T05:55:37.442Z,1.40
2019-03-10T05:56:37.424Z,1.60
2019-03-10T05:57:37.447Z,1.50
2019-03-10T05:58:37.410Z,1.50
2019-03-10T05:59:37.436Z,1.90
2019-03-10T06:00:42.791Z,1.40
2019-03-10T06:01:37.392Z,2.10
2019-03-10T06:02:37.418Z,1.40
2019-03-10T06:03:37.379Z,1.20
2019-03-10T06:04:37.381Z,1.30
2019-03-10T06:05:37.392Z,1.40
2019-03-10T06:06:37.368Z,1.50
2019-03-10T06:07:37.517Z,1.40
2019-03-10T06:08:37.361Z,2.70
2019-03-10T06:09:37.346Z,1.50
2019-03-10T06:10:37.330Z,1.60
2019-03-10T06:11:37.379Z,1.20
2019-03-10T06:12:37.372Z,1.40
2019-03-10T06:13:37.310Z,1.50
2019-03-10T06:14:37.332Z,1.30
2019-03-10T06:15:37.351Z,1.30
2019-03-10T06:16:37.306Z,1.40
2019-03-10T06:17:37.311Z,1.30
2019-03-10T06:18:37.284Z,1.30
2019-03-10T06:19:37.273Z,1.50
2019-03-10T06:20:37.274Z,1.50
2019-03-10T06:21:37.288Z,1.40
2019-03-10T06:22:37.317Z,1.40
2019-03-10T06:23:37.267Z,1.90
2019-03-10T06:24:37.242Z,1.40
2019-03-10T06:25:37.243Z,1.40
2019-03-10T06:26:37.236Z,1.20
2019-03-10T06:27:37.220Z,1.40
2019-03-10T06:28:37.382Z,1.30
2019-03-10T06:29:37.213Z,1.40
2019-03-10T06:30:37.191Z,1.50
2019-03-10T06:31:37.205Z,1.40
2019-03-10T06:32:37.204Z,1.50
2019-03-10T06:33:37.190Z,1.50
2019-03-10T06:34:37.192Z,1.30
2019-03-10T06:35:37.180Z,1.30
2019-03-10T06:36:37.169Z,1.30
2019-03-10T06:37:37.159Z,1.30
2019-03-10T06:38:37.168Z,1.40
2019-03-10T06:39:37.125Z,2.80
2019-03-10T06:40:37.137Z,2.10
2019-03-10T06:41:37.168Z,1.50
2019-03-10T06:42:37.134Z,1.50
2019-03-10T06:43:37.128Z,1.40
2019-03-10T06:44:37.113Z,1.60
2019-03-10T06:45:37.113Z,1.20
2019-03-10T06:46:37.105Z,1.30
2019-03-10T06:47:37.085Z,1.50
2019-03-10T06:48:37.131Z,1.50
2019-03-10T06:49:37.084Z,1.50
2019-03-10T06:50:37.176Z,1.30
2019-03-10T06:51:37.095Z,1.40
2019-03-10T06:52:37.056Z,1.30
2019-03-10T06:53:37.028Z,1.40
2019-03-10T06:54:37.032Z,1.30
2019-03-10T06:55:37.022Z,1.30
2019-03-10T06:56:37.035Z,1.40
2019-03-10T06:57:37.008Z,1.40
2019-03-10T06:58:37.022Z,1.30
2019-03-10T06:59:37.039Z,1.50
2019-03-10T07:00:37.006Z,1.30
2019-03-10T07:01:36.998Z,1.30
2019-03-10T07:02:36.992Z,1.30
2019-03-10T07:03:36.974Z,1.30
2019-03-10T07:04:36.956Z,1.40
2019-03-10T07:05:37.097Z,1.20
2019-03-10T07:06:36.963Z,1.40
2019-03-10T07:07:36.949Z,1.30
2019-03-10T07:08:36.926Z,1.80
2019-03-10T07:09:36.934Z,1.40
2019-03-10T07:10:36.913Z,1.60
2019-03-10T07:11:36.895Z,1.30
2019-03-10T07:12:36.914Z,1.30
2019-03-10T07:13:38.765Z,1.40
2019-03-10T07:14:36.899Z,1.70
2019-03-10T07:15:36.880Z,1.60
2019-03-10T07:16:36.868Z,1.60
2019-03-10T07:17:36.911Z,1.30
2019-03-10T07:18:36.865Z,1.40
2019-03-10T07:19:36.851Z,1.50
2019-03-10T07:20:36.904Z,1.30
2019-03-10T07:21:36.840Z,1.40
2019-03-10T07:22:36.827Z,1.20
2019-03-10T07:23:36.836Z,1.90
2019-03-10T07:24:36.833Z,2.10
2019-03-10T07:25:36.811Z,1.00
2019-03-10T07:26:36.811Z,2.10
2019-03-10T07:27:36.809Z,1.30
2019-03-10T07:28:36.792Z,1.30
2019-03-10T07:29:36.775Z,1.20
2019-03-10T07:30:36.769Z,1.00
2019-03-10T07:31:36.825Z,1.10
2019-03-10T07:32:36.778Z,1.00
2019-03-10T07:33:36.778Z,1.00
2019-03-10T07:34:36.763Z,1.60
2019-03-10T07:35:36.742Z,0.90
2019-03-10T07:36:36.776Z,1.10
2019-03-10T07:37:36.713Z,1.00
2019-03-10T07:38:36.740Z,1.00
2019-03-10T07:39:36.693Z,1.10
2019-03-10T07:40:36.698Z,2.00
2019-03-10T07:41:36.711Z,0.80
2019-03-10T07:42:36.684Z,1.20
2019-03-10T07:43:36.686Z,0.90
2019-03-10T07:44:36.720Z,0.90
2019-03-10T07:45:36.668Z,0.90
2019-03-10T07:46:36.667Z,0.90
2019-03-10T07:47:36.805Z,0.90
2019-03-10T07:48:36.653Z,0.80
2019-03-10T07:49:36.653Z,1.10
2019-03-10T07:50:36.654Z,0.90
2019-03-10T07:51:36.638Z,1.30
2019-03-10T07:52:36.601Z,0.90
2019-03-10T07:53:36.601Z,0.90
2019-03-10T07:54:36.652Z,0.80
2019-03-10T07:55:36.587Z,0.90
2019-03-10T07:56:36.597Z,1.10
2019-03-10T07:57:36.603Z,0.90
2019-03-10T07:58:36.574Z,1.00
2019-03-10T07:59:36.578Z,1.60
2019-03-10T08:00:36.565Z,1.00
2019-03-10T08:01:36.562Z,1.00
2019-03-10T08:02:36.587Z,1.00
2019-03-10T08:03:36.532Z,0.80
2019-03-10T08:04:36.529Z,1.10
2019-03-10T08:05:36.536Z,1.10
2019-03-10T08:06:36.502Z,1.00
2019-03-10T08:07:36.513Z,1.20
2019-03-10T08:08:36.488Z,1.00
2019-03-10T08:09:36.547Z,1.00
2019-03-10T08:10:36.467Z,1.00
2019-03-10T08:11:36.467Z,1.10
2019-03-10T08:12:36.483Z,1.00
2019-03-10T08:13:36.456Z,0.90
2019-03-10T08:14:36.506Z,1.60
2019-03-10T08:15:36.560Z,0.90
2019-03-10T08:16:36.495Z,1.00
2019-03-10T08:17:36.445Z,1.20
2019-03-10T08:18:36.433Z,1.10
2019-03-10T08:19:36.430Z,0.90
2019-03-10T08:20:36.406Z,1.10
2019-03-10T08:21:36.392Z,0.90
2019-03-10T08:22:36.405Z,1.20
2019-03-10T08:23:36.393Z,0.80
2019-03-10T08:24:36.379Z,1.60
2019-03-10T08:25:36.397Z,1.30
2019-03-10T08:26:36.364Z,0.90
2019-03-10T08:27:36.367Z,0.90
2019-03-10T08:28:36.353Z,1.20
2019-03-10T08:29:36.357Z,1.00
2019-03-10T08:30:36.346Z,0.90
2019-03-10T08:31:36.330Z,1.90
2019-03-10T08:32:36.341Z,1.20
2019-03-10T08:33:36.314Z,1.20
2019-03-10T08:34:36.315Z,1.10
2019-03-10T08:35:36.304Z,1.10
2019-03-10T08:36:36.317Z,1.40
2019-03-10T08:37:36.311Z,1.10
2019-03-10T08:38:36.289Z,1.00
2019-03-10T08:39:36.290Z,1.00
2019-03-10T08:40:36.263Z,1.10
2019-03-10T08:41:36.279Z,1.20
2019-03-10T08:42:36.247Z,1.10
2019-03-10T08:43:36.251Z,1.00
2019-03-10T08:44:36.246Z,1.10
2019-03-10T08:45:36.240Z,1.10
2019-03-10T08:46:36.240Z,1.10
2019-03-10T08:47:36.224Z,1.10
2019-03-10T08:48:36.227Z,1.20
2019-03-10T08:49:44.817Z,2.00
2019-03-10T08:50:36.207Z,1.00
2019-03-10T08:51:36.178Z,1.10
2019-03-10T08:52:36.188Z,1.00
2019-03-10T08:53:36.189Z,1.10
2019-03-10T08:54:36.213Z,1.10
2019-03-10T08:55:36.168Z,1.10
2019-03-10T08:56:36.159Z,1.20
2019-03-10T08:57:36.161Z,1.10
2019-03-10T08:58:36.143Z,1.20
2019-03-10T08:59:36.145Z,1.30
2019-03-10T09:00:36.129Z,1.10
2019-03-10T09:01:36.173Z,1.40
2019-03-10T09:02:36.109Z,1.30
2019-03-10T09:03:36.109Z,1.40
2019-03-10T09:04:36.143Z,2.30
2019-03-10T09:05:36.105Z,1.40
2019-03-10T09:06:36.088Z,1.30
2019-03-10T09:07:36.095Z,1.40
2019-03-10T09:08:36.060Z,2.10
2019-03-10T09:09:36.147Z,1.30
2019-03-10T09:10:36.095Z,1.20
2019-03-10T09:11:36.048Z,1.30
2019-03-10T09:12:36.021Z,1.40
2019-03-10T09:13:36.040Z,1.50
2019-03-10T09:14:36.039Z,1.40
2019-03-10T09:15:36.010Z,1.40
2019-03-10T09:16:36.006Z,1.40
2019-03-10T09:17:36.025Z,1.30
2019-03-10T09:18:35.988Z,1.60
2019-03-10T09:19:36.028Z,1.80
2019-03-10T09:20:35.964Z,1.80
2019-03-10T09:21:35.962Z,2.80
2019-03-10T09:22:35.984Z,2.10
2019-03-10T09:23:35.965Z,1.80
2019-03-10T09:24:35.962Z,1.80
2019-03-10T09:25:35.934Z,1.70
2019-03-10T09:26:35.948Z,1.40
2019-03-10T09:27:35.933Z,1.50
2019-03-10T09:28:35.924Z,1.50
2019-03-10T09:29:35.927Z,1.60
2019-03-10T09:30:35.915Z,2.00
2019-03-10T09:31:35.953Z,2.20
2019-03-10T09:32:36.893Z,1.70
2019-03-10T09:33:35.891Z,1.60
2019-03-10T09:34:35.897Z,1.50
2019-03-10T09:35:35.889Z,1.60
2019-03-10T09:36:35.858Z,1.40
2019-03-10T09:37:35.869Z,1.90
2019-03-10T09:38:35.851Z,1.50
2019-03-10T09:39:35.835Z,1.80
2019-03-10T09:40:35.843Z,1.40
2019-03-10T09:41:35.848Z,1.50
2019-03-10T09:42:35.841Z,2.30
2019-03-10T09:43:35.811Z,1.60
2019-03-10T09:44:35.825Z,1.50
2019-03-10T09:45:35.850Z,1.70
2019-03-10T09:46:35.809Z,1.60
2019-03-10T09:47:35.843Z,1.60
2019-03-10T09:48:35.780Z,1.50
2019-03-10T09:49:35.768Z,1.50
2019-03-10T09:50:35.790Z,1.60
2019-03-10T09:51:35.762Z,2.40
2019-03-10T09:52:35.767Z,1.70
2019-03-10T09:53:35.753Z,1.60
2019-03-10T09:54:35.733Z,1.50
2019-03-10T09:55:35.757Z,1.60
2019-03-10T09:56:35.746Z,1.70
2019-03-10T09:57:35.738Z,1.70
2019-03-10T09:58:35.766Z,2.10
2019-03-10T09:59:35.725Z,1.90
2019-03-10T10:00:35.719Z,2.20
2019-03-10T10:01:35.700Z,2.10
2019-03-10T10:02:35.699Z,1.70
2019-03-10T10:03:35.666Z,1.80
2019-03-10T10:04:35.719Z,1.80
2019-03-10T10:05:35.651Z,2.60
2019-03-10T10:06:35.669Z,1.80
2019-03-10T10:07:35.656Z,2.20
2019-03-10T10:08:35.642Z,1.90
2019-03-10T10:09:35.796Z,1.90
2019-03-10T10:10:35.650Z,1.80
2019-03-10T10:11:35.643Z,1.70
2019-03-10T10:12:35.630Z,1.60
2019-03-10T10:13:35.614Z,1.70
2019-03-10T10:14:35.616Z,1.50
2019-03-10T10:15:35.610Z,2.50
2019-03-10T10:16:35.592Z,1.60
2019-03-10T10:17:35.595Z,2.10
2019-03-10T10:18:35.593Z,1.60
2019-03-10T10:19:35.613Z,2.20
2019-03-10T10:20:35.683Z,1.70
2019-03-10T10:21:35.575Z,1.50
2019-03-10T10:22:35.550Z,1.60
2019-03-10T10:23:35.540Z,1.50
2019-03-10T10:24:35.532Z,2.00
2019-03-10T10:25:35.580Z,1.40
2019-03-10T10:26:35.507Z,1.90
2019-03-10T10:27:35.522Z,2.40
2019-03-10T10:28:35.520Z,1.20
2019-03-10T10:29:35.507Z,1.60
2019-03-10T10:30:35.494Z,1.60
2019-03-10T10:31:35.500Z,1.40
2019-03-10T10:32:35.524Z,1.80
2019-03-10T10:33:35.466Z,2.60
2019-03-10T10:34:35.479Z,1.40
2019-03-10T10:35:35.464Z,2.10
2019-03-10T10:36:35.468Z,1.90
2019-03-10T10:37:35.622Z,1.40
2019-03-10T10:38:37.580Z,1.50
2019-03-10T10:39:35.439Z,1.50
2019-03-10T10:40:35.436Z,1.90
2019-03-10T10:41:35.422Z,2.50
2019-03-10T10:42:35.399Z,2.10
2019-03-10T10:43:35.428Z,1.40
2019-03-10T10:44:35.394Z,2.20
2019-03-10T10:45:35.389Z,1.60
2019-03-10T10:46:35.379Z,1.60
2019-03-10T10:47:35.397Z,1.80
2019-03-10T10:48:35.373Z,1.80
2019-03-10T10:49:35.479Z,1.90
2019-03-10T10:50:35.357Z,1.70
2019-03-10T10:51:35.374Z,1.80
2019-03-10T10:52:35.363Z,1.70
2019-03-10T10:53:35.357Z,1.70
2019-03-10T10:54:35.362Z,1.70
2019-03-10T10:55:35.383Z,2.30
2019-03-10T10:56:35.418Z,1.70
2019-03-10T10:57:35.327Z,1.70
2019-03-10T10:58:35.423Z,1.60
2019-03-10T10:59:35.310Z,1.80
2019-03-10T11:00:35.308Z,1.60
2019-03-10T11:01:35.282Z,1.60
2019-03-10T11:02:35.292Z,1.70
2019-03-10T11:03:35.271Z,2.60
2019-03-10T11:04:35.285Z,1.70
2019-03-10T11:05:35.258Z,1.90
2019-03-10T11:06:35.275Z,2.70
2019-03-10T11:07:35.256Z,1.70
2019-03-10T11:08:35.262Z,2.10
2019-03-10T11:09:35.262Z,1.60
2019-03-10T11:10:35.254Z,1.90
2019-03-10T11:11:35.275Z,1.70
2019-03-10T11:12:35.275Z,1.50
2019-03-10T11:13:35.253Z,1.70
2019-03-10T11:14:35.213Z,1.60
2019-03-10T11:15:35.205Z,1.50
2019-03-10T11:16:35.196Z,2.50
2019-03-10T11:17:35.195Z,1.90
2019-03-10T11:18:35.197Z,2.00
2019-03-10T11:19:35.198Z,1.70
2019-03-10T11:20:35.184Z,1.40
2019-03-10T11:21:35.184Z,1.70
2019-03-10T11:22:35.147Z,2.50
2019-03-10T11:23:35.173Z,1.90
2019-03-10T11:24:35.162Z,2.30
2019-03-10T11:25:35.246Z,1.60
2019-03-10T11:26:35.137Z,1.70
2019-03-10T11:27:35.130Z,1.60
2019-03-10T11:28:35.111Z,1.70
2019-03-10T11:29:35.126Z,2.30
2019-03-10T11:30:35.114Z,1.50
2019-03-10T11:31:35.114Z,2.30
2019-03-10T11:32:35.121Z,2.30
2019-03-10T11:33:35.112Z,2.20
2019-03-10T11:34:35.100Z,1.70
2019-03-10T11:35:35.177Z,1.50
2019-03-10T11:36:35.096Z,1.80
2019-03-10T11:37:35.073Z,1.60
2019-03-10T11:38:37.057Z,2.40
2019-03-10T11:39:35.072Z,1.70
2019-03-10T11:40:35.258Z,2.60
2019-03-10T11:41:35.095Z,1.70
2019-03-10T11:42:35.067Z,1.70
2019-03-10T11:43:35.047Z,1.90
2019-03-10T11:44:35.033Z,2.70
2019-03-10T11:45:35.040Z,2.60
2019-03-10T11:46:35.069Z,2.00
2019-03-10T11:47:35.001Z,3.30
2019-03-10T11:48:34.993Z,2.20
2019-03-10T11:49:34.985Z,2.20
2019-03-10T11:50:35.002Z,1.80
2019-03-10T11:51:34.979Z,2.10
2019-03-10T11:52:34.993Z,2.10
2019-03-10T11:53:35.000Z,2.90
2019-03-10T11:54:34.974Z,1.60
2019-03-10T11:55:35.012Z,1.90
2019-03-10T11:56:34.994Z,2.20
2019-03-10T11:57:34.950Z,2.30
2019-03-10T11:58:34.958Z,2.50
2019-03-10T11:59:34.935Z,3.00
2019-03-10T12:00:34.936Z,2.10
2019-03-10T12:01:34.947Z,2.80
2019-03-10T12:02:34.935Z,2.00
2019-03-10T12:03:34.924Z,1.90
2019-03-10T12:04:34.911Z,2.80
2019-03-10T12:05:34.921Z,2.60
2019-03-10T12:06:34.898Z,2.30
2019-03-10T12:07:34.908Z,2.60
2019-03-10T12:08:34.903Z,3.00
2019-03-10T12:09:34.892Z,2.30
2019-03-10T12:10:34.924Z,2.20
2019-03-10T12:11:34.862Z,1.80
2019-03-10T12:12:34.868Z,1.80
2019-03-10T12:13:34.849Z,2.10
2019-03-10T12:14:34.892Z,1.80
2019-03-10T12:15:34.845Z,1.90
2019-03-10T12:16:34.834Z,1.70
2019-03-10T12:17:34.827Z,1.60
2019-03-10T12:18:34.844Z,1.60
2019-03-10T12:19:34.828Z,1.60
2019-03-10T12:20:34.832Z,1.80
2019-03-10T12:21:34.814Z,1.60
2019-03-10T12:22:34.820Z,1.40
2019-03-10T12:23:34.849Z,1.40
2019-03-10T12:24:34.786Z,1.50
2019-03-10T12:25:34.800Z,1.80
2019-03-10T12:26:34.793Z,1.40
2019-03-10T12:27:34.822Z,1.50
2019-03-10T12:28:34.780Z,1.40
2019-03-10T12:29:34.786Z,1.20
2019-03-10T12:30:34.754Z,1.50
2019-03-10T12:31:34.758Z,1.40
2019-03-10T12:32:34.742Z,1.40
2019-03-10T12:33:34.729Z,1.30
2019-03-10T12:34:34.732Z,1.20
2019-03-10T12:35:34.954Z,1.40
2019-03-10T12:36:34.804Z,1.20
2019-03-10T12:37:34.830Z,1.20
2019-03-10T12:38:34.724Z,1.20
2019-03-10T12:39:34.716Z,1.00
2019-03-10T12:40:34.711Z,1.20
2019-03-10T12:41:34.697Z,1.20
2019-03-10T12:42:34.694Z,1.00
2019-03-10T12:43:34.741Z,1.20
2019-03-10T12:44:34.691Z,1.70
2019-03-10T12:45:34.698Z,1.20
2019-03-10T12:46:34.726Z,1.20
2019-03-10T12:47:34.715Z,1.20
2019-03-10T12:48:34.687Z,1.40
2019-03-10T12:49:34.687Z,1.30
2019-03-10T12:50:34.665Z,1.10
2019-03-10T12:51:34.652Z,1.30
2019-03-10T12:52:34.696Z,1.50
2019-03-10T12:53:34.642Z,1.20
2019-03-10T12:54:34.652Z,1.40
2019-03-10T12:55:34.648Z,1.50
2019-03-10T12:56:34.629Z,1.40
2019-03-10T12:57:34.637Z,2.80
2019-03-10T12:58:34.622Z,1.40
2019-03-10T12:59:34.636Z,1.40
2019-03-10T13:00:34.621Z,1.00
2019-03-10T13:01:34.601Z,1.10
2019-03-10T13:02:34.611Z,1.20
2019-03-10T13:03:34.875Z,1.20
2019-03-10T13:04:34.614Z,1.40
2019-03-10T13:05:34.581Z,1.30
2019-03-10T13:06:34.592Z,1.40
2019-03-10T13:07:34.573Z,1.30
2019-03-10T13:08:34.593Z,1.10
2019-03-10T13:09:34.588Z,1.10
2019-03-10T13:10:34.584Z,1.30